Ukiah, CA

9:58 AM PDT on August 30, 2014 (GMT -0700)
Ukiah Municipal | Change Station
CLOSE
Current Station
Airport
Location: Ukiah,
Elevation: 614 ft
Nearby Weather Stations

Elev 614 ft 39.13 °N, 123.20 °W | Updated 1 hour ago

Clear
Clear
67 °F
Feels Like 67 °F
N
0
Wind Variable Wind from North

Today
High -- | Low -- °F
--% Chance of Precip.
Yesterday
High -- | Low -- °F
Precip. -- in
6:39 AM 7:46 PM
Waxing Crescent, 23% visible
Pressure 29.91 in
Visibility 10.0 miles
Clouds Clear
Dew Point 48 °F
Humidity 51%
Rainfall 0.00 in
Snow Depth Not available.
UV 2 out of 12
Pollen 8.80 out of 12
Air Quality Not available.
Flu Activity Not available.
METAR KUKI 301556Z AUTO 00000KT 10SM CLR 19/09 A2993 RMK AO2 SLP127 T01940089

More Conditions Fewer Conditions

Pressure 29.91 in
Visibility 10.0 miles
Clouds Clear
Dew Point 48 °F
Humidity 51%
Rainfall 0.00 in
Snow Depth Not available.
UV 2 out of 12
Pollen 8.80 out of 12
Air Quality Not available.
Flu Activity Not available.
METAR KUKI 301556Z AUTO 00000KT 10SM CLR 19/09 A2993 RMK AO2 SLP127 T01940089

More Conditions Fewer Conditions

10-Day Weather Forecast

Almanac

Astronomy

Aug. 30, 2014 Rise Set
Actual Time 6:39 AM PDT 7:46 PM PDT
Civil Twilight 6:12 AM PDT 8:13 PM PDT
Nautical Twilight 5:39 AM PDT 8:46 PM PDT
Astronomical Twilight 5:05 AM PDT 9:20 PM PDT
Moon 11:30 AM PDT 10:26 PM PDT
Length of Visible Light 14h 01m
Length of Day
13h 06m
Tomorrow will be 2m 26s shorter.
Waxing Crescent, 23% of the Moon is Illuminated
Today
Waxing Crescent
Sep 2
First Quarter
Sep 8
Full
Sep 15
Last Quarter
Sep 24
New

Today's Extremes

State Highs State Lows

Community

WunderPhotos

Upload Photos

1,748,562 photos uploaded!

WunderBlogs® & News

Nearby

Snow Depth

Station Depth Elevation
CSS Lab 4 in 6900 ft
Tahoe City Cross 0 in 6750 ft
Echo Peak 0 in 7800 ft
Hagan's Meadow 0 in 8000 ft
Forestdale Creek 0 in 8029 ft

Earthquake Activity

City Distance Mag. Time & Date
The Geysers, California 30 miles 2.7 2:53 PM PDT
2014-08-29
Minimum magnitude displayed is 2.5.

Coastal Water Temperatures

Place Temperature
Arena Cove, CA 55.9 °F
North Spit, CA 61.0 °F
Point Reyes, CA 61.0 °F
San Francisco, CA 66.0 °F
Richmond, CA 66.9 °F

Nearby Weather Stations